sensor_id;sensor_type;location;lat;lon;timestamp;P1;durP1;ratioP1;P2;durP2;ratioP2
3643;SDS011;1838;50.742;7.158;2022-11-18T00:00:09;10.70;;;3.37;;
3643;SDS011;1838;50.742;7.158;2022-11-18T00:02:35;12.07;;;3.40;;
3643;SDS011;1838;50.742;7.158;2022-11-18T00:05:01;9.80;;;3.20;;
3643;SDS011;1838;50.742;7.158;2022-11-18T00:07:26;5.53;;;3.27;;
3643;SDS011;1838;50.742;7.158;2022-11-18T00:09:52;5.83;;;3.17;;
3643;SDS011;1838;50.742;7.158;2022-11-18T00:12:17;5.97;;;2.63;;
3643;SDS011;1838;50.742;7.158;2022-11-18T00:15:02;9.23;;;3.07;;
3643;SDS011;1838;50.742;7.158;2022-11-18T00:17:27;8.57;;;2.93;;
3643;SDS011;1838;50.742;7.158;2022-11-18T00:19:53;7.10;;;2.77;;
3643;SDS011;1838;50.742;7.158;2022-11-18T00:22:18;4.83;;;2.80;;
3643;SDS011;1838;50.742;7.158;2022-11-18T00:24:44;11.97;;;3.60;;
3643;SDS011;1838;50.742;7.158;2022-11-18T00:27:09;5.20;;;3.07;;
3643;SDS011;1838;50.742;7.158;2022-11-18T00:29:34;10.47;;;3.60;;
3643;SDS011;1838;50.742;7.158;2022-11-18T00:32:01;5.20;;;2.90;;
3643;SDS011;1838;50.742;7.158;2022-11-18T00:34:26;4.30;;;2.70;;
3643;SDS011;1838;50.742;7.158;2022-11-18T00:36:52;5.90;;;3.60;;
3643;SDS011;1838;50.742;7.158;2022-11-18T00:39:18;5.63;;;3.53;;
3643;SDS011;1838;50.742;7.158;2022-11-18T00:41:44;7.60;;;3.40;;
3643;SDS011;1838;50.742;7.158;2022-11-18T00:44:28;6.97;;;3.13;;
3643;SDS011;1838;50.742;7.158;2022-11-18T00:46:54;5.03;;;3.83;;
3643;SDS011;1838;50.742;7.158;2022-11-18T00:49:20;8.50;;;4.50;;
3643;SDS011;1838;50.742;7.158;2022-11-18T00:51:46;12.30;;;3.40;;
3643;SDS011;1838;50.742;7.158;2022-11-18T00:54:12;11.37;;;3.30;;
3643;SDS011;1838;50.742;7.158;2022-11-18T00:56:37;12.43;;;3.27;;
3643;SDS011;1838;50.742;7.158;2022-11-18T00:59:03;8.57;;;3.93;;
3643;SDS011;1838;50.742;7.158;2022-11-18T01:01:28;8.73;;;3.23;;
3643;SDS011;1838;50.742;7.158;2022-11-18T01:03:54;15.27;;;3.63;;
3643;SDS011;1838;50.742;7.158;2022-11-18T01:06:20;4.80;;;2.80;;
3643;SDS011;1838;50.742;7.158;2022-11-18T01:08:45;10.40;;;3.67;;
3643;SDS011;1838;50.742;7.158;2022-11-18T01:11:11;8.87;;;2.90;;
3643;SDS011;1838;50.742;7.158;2022-11-18T01:13:55;5.57;;;2.73;;
3643;SDS011;1838;50.742;7.158;2022-11-18T01:16:21;4.23;;;3.33;;
3643;SDS011;1838;50.742;7.158;2022-11-18T01:18:49;12.67;;;3.70;;
3643;SDS011;1838;50.742;7.158;2022-11-18T01:21:15;5.60;;;2.90;;
3643;SDS011;1838;50.742;7.158;2022-11-18T01:23:41;5.63;;;2.50;;
3643;SDS011;1838;50.742;7.158;2022-11-18T01:26:08;5.80;;;3.27;;
3643;SDS011;1838;50.742;7.158;2022-11-18T01:28:35;5.97;;;2.83;;
3643;SDS011;1838;50.742;7.158;2022-11-18T01:31:08;4.83;;;3.37;;
3643;SDS011;1838;50.742;7.158;2022-11-18T01:33:36;7.17;;;2.87;;
3643;SDS011;1838;50.742;7.158;2022-11-18T01:36:02;3.60;;;2.67;;
3643;SDS011;1838;50.742;7.158;2022-11-18T01:38:27;7.73;;;3.73;;
3643;SDS011;1838;50.742;7.158;2022-11-18T01:40:53;5.63;;;3.10;;
3643;SDS011;1838;50.742;7.158;2022-11-18T01:43:20;12.20;;;3.03;;
3643;SDS011;1838;50.742;7.158;2022-11-18T01:45:47;6.10;;;3.50;;
3643;SDS011;1838;50.742;7.158;2022-11-18T01:50:46;5.33;;;3.10;;
3643;SDS011;1838;50.742;7.158;2022-11-18T01:53:15;8.00;;;3.37;;
3643;SDS011;1838;50.742;7.158;2022-11-18T01:55:46;5.40;;;3.00;;
3643;SDS011;1838;50.742;7.158;2022-11-18T01:58:16;8.73;;;3.50;;
3643;SDS011;1838;50.742;7.158;2022-11-18T02:00:47;6.90;;;3.47;;
3643;SDS011;1838;50.742;7.158;2022-11-18T02:03:13;9.00;;;3.70;;
3643;SDS011;1838;50.742;7.158;2022-11-18T02:05:40;13.13;;;4.67;;
3643;SDS011;1838;50.742;7.158;2022-11-18T02:08:08;9.90;;;4.50;;
3643;SDS011;1838;50.742;7.158;2022-11-18T02:10:33;10.13;;;3.87;;
3643;SDS011;1838;50.742;7.158;2022-11-18T02:12:59;9.80;;;3.83;;
3643;SDS011;1838;50.742;7.158;2022-11-18T02:15:29;8.60;;;3.20;;
3643;SDS011;1838;50.742;7.158;2022-11-18T02:18:02;9.50;;;3.80;;
3643;SDS011;1838;50.742;7.158;2022-11-18T02:20:31;11.47;;;3.50;;
3643;SDS011;1838;50.742;7.158;2022-11-18T02:23:15;11.13;;;3.70;;
3643;SDS011;1838;50.742;7.158;2022-11-18T02:29:10;12.53;;;3.40;;
3643;SDS011;1838;50.742;7.158;2022-11-18T02:34:24;10.40;;;4.20;;
3643;SDS011;1838;50.742;7.158;2022-11-18T02:39:50;11.50;;;3.47;;
3643;SDS011;1838;50.742;7.158;2022-11-18T02:42:37;8.57;;;3.53;;
3643;SDS011;1838;50.742;7.158;2022-11-18T02:45:05;9.60;;;4.00;;
3643;SDS011;1838;50.742;7.158;2022-11-18T02:47:34;6.00;;;3.73;;
3643;SDS011;1838;50.742;7.158;2022-11-18T02:50:02;9.50;;;3.50;;
3643;SDS011;1838;50.742;7.158;2022-11-18T02:52:31;11.90;;;3.90;;
3643;SDS011;1838;50.742;7.158;2022-11-18T02:54:58;11.77;;;3.23;;
3643;SDS011;1838;50.742;7.158;2022-11-18T02:57:25;6.27;;;4.30;;
3643;SDS011;1838;50.742;7.158;2022-11-18T02:59:54;7.07;;;2.87;;
3643;SDS011;1838;50.742;7.158;2022-11-18T03:02:19;16.33;;;4.00;;
3643;SDS011;1838;50.742;7.158;2022-11-18T03:04:46;6.13;;;3.10;;
3643;SDS011;1838;50.742;7.158;2022-11-18T03:07:17;8.00;;;3.30;;
3643;SDS011;1838;50.742;7.158;2022-11-18T03:09:55;11.77;;;4.33;;
3643;SDS011;1838;50.742;7.158;2022-11-18T03:17:51;8.03;;;3.70;;
3643;SDS011;1838;50.742;7.158;2022-11-18T03:20:44;7.00;;;3.17;;
3643;SDS011;1838;50.742;7.158;2022-11-18T03:26:03;6.87;;;3.17;;
3643;SDS011;1838;50.742;7.158;2022-11-18T03:28:48;12.27;;;3.33;;
3643;SDS011;1838;50.742;7.158;2022-11-18T03:31:22;7.73;;;3.43;;
3643;SDS011;1838;50.742;7.158;2022-11-18T03:34:07;9.00;;;3.90;;
3643;SDS011;1838;50.742;7.158;2022-11-18T03:36:59;10.23;;;3.87;;
3643;SDS011;1838;50.742;7.158;2022-11-18T03:39:27;17.43;;;3.73;;
3643;SDS011;1838;50.742;7.158;2022-11-18T03:42:42;9.93;;;2.80;;
3643;SDS011;1838;50.742;7.158;2022-11-18T03:44:44;8.70;;;2.83;;
3643;SDS011;1838;50.742;7.158;2022-11-18T03:47:25;5.00;;;3.20;;
3643;SDS011;1838;50.742;7.158;2022-11-18T03:49:59;5.13;;;2.70;;
3643;SDS011;1838;50.742;7.158;2022-11-18T03:52:32;10.97;;;3.57;;
3643;SDS011;1838;50.742;7.158;2022-11-18T03:55:02;11.10;;;3.60;;
3643;SDS011;1838;50.742;7.158;2022-11-18T03:57:42;5.83;;;3.20;;
3643;SDS011;1838;50.742;7.158;2022-11-18T04:00:13;6.10;;;3.20;;
3643;SDS011;1838;50.742;7.158;2022-11-18T04:02:40;5.60;;;2.97;;
3643;SDS011;1838;50.742;7.158;2022-11-18T04:05:08;10.83;;;3.43;;
3643;SDS011;1838;50.742;7.158;2022-11-18T04:07:37;9.30;;;4.07;;
3643;SDS011;1838;50.742;7.158;2022-11-18T04:12:49;7.40;;;4.50;;
3643;SDS011;1838;50.742;7.158;2022-11-18T04:15:23;6.40;;;3.73;;
3643;SDS011;1838;50.742;7.158;2022-11-18T04:17:49;16.57;;;4.53;;
3643;SDS011;1838;50.742;7.158;2022-11-18T04:20:16;10.87;;;4.20;;
3643;SDS011;1838;50.742;7.158;2022-11-18T04:22:46;9.10;;;4.20;;
3643;SDS011;1838;50.742;7.158;2022-11-18T04:25:12;9.50;;;4.20;;
3643;SDS011;1838;50.742;7.158;2022-11-18T04:27:38;15.37;;;4.20;;
3643;SDS011;1838;50.742;7.158;2022-11-18T04:30:05;15.30;;;4.27;;
3643;SDS011;1838;50.742;7.158;2022-11-18T04:32:31;9.03;;;3.47;;
3643;SDS011;1838;50.742;7.158;2022-11-18T04:34:56;9.10;;;3.80;;
3643;SDS011;1838;50.742;7.158;2022-11-18T04:37:22;7.70;;;3.90;;
3643;SDS011;1838;50.742;7.158;2022-11-18T04:39:48;9.37;;;3.83;;
3643;SDS011;1838;50.742;7.158;2022-11-18T04:42:14;7.87;;;2.97;;
3643;SDS011;1838;50.742;7.158;2022-11-18T04:44:39;5.60;;;2.80;;
3643;SDS011;1838;50.742;7.158;2022-11-18T04:47:05;9.73;;;3.23;;
3643;SDS011;1838;50.742;7.158;2022-11-18T04:49:31;4.97;;;3.07;;
3643;SDS011;1838;50.742;7.158;2022-11-18T04:51:58;6.03;;;3.83;;
3643;SDS011;1838;50.742;7.158;2022-11-18T04:54:24;5.67;;;2.50;;
3643;SDS011;1838;50.742;7.158;2022-11-18T04:56:51;7.00;;;2.93;;
3643;SDS011;1838;50.742;7.158;2022-11-18T04:59:18;8.80;;;3.47;;
3643;SDS011;1838;50.742;7.158;2022-11-18T05:01:45;4.47;;;2.80;;
3643;SDS011;1838;50.742;7.158;2022-11-18T05:04:12;3.60;;;2.70;;
3643;SDS011;1838;50.742;7.158;2022-11-18T05:06:39;3.60;;;2.80;;
3643;SDS011;1838;50.742;7.158;2022-11-18T05:09:05;9.07;;;3.00;;
3643;SDS011;1838;50.742;7.158;2022-11-18T05:11:30;2.97;;;2.20;;
3643;SDS011;1838;50.742;7.158;2022-11-18T05:14:15;8.07;;;3.20;;
3643;SDS011;1838;50.742;7.158;2022-11-18T05:16:41;10.70;;;3.30;;
3643;SDS011;1838;50.742;7.158;2022-11-18T05:19:07;4.23;;;2.43;;
3643;SDS011;1838;50.742;7.158;2022-11-18T05:21:32;5.73;;;2.93;;
3643;SDS011;1838;50.742;7.158;2022-11-18T05:23:58;17.80;;;4.60;;
3643;SDS011;1838;50.742;7.158;2022-11-18T05:26:24;8.47;;;3.43;;
3643;SDS011;1838;50.742;7.158;2022-11-18T05:28:50;9.73;;;3.90;;
3643;SDS011;1838;50.742;7.158;2022-11-18T05:31:16;6.70;;;3.83;;
3643;SDS011;1838;50.742;7.158;2022-11-18T05:33:41;7.90;;;3.53;;
3643;SDS011;1838;50.742;7.158;2022-11-18T05:36:09;6.87;;;3.33;;
3643;SDS011;1838;50.742;7.158;2022-11-18T05:38:37;5.67;;;3.60;;
3643;SDS011;1838;50.742;7.158;2022-11-18T05:41:03;7.87;;;4.20;;
3643;SDS011;1838;50.742;7.158;2022-11-18T05:43:29;7.30;;;3.50;;
3643;SDS011;1838;50.742;7.158;2022-11-18T05:45:55;10.90;;;4.90;;
3643;SDS011;1838;50.742;7.158;2022-11-18T05:48:21;9.40;;;4.43;;
3643;SDS011;1838;50.742;7.158;2022-11-18T05:50:48;10.47;;;4.90;;
3643;SDS011;1838;50.742;7.158;2022-11-18T05:53:15;9.73;;;5.07;;
3643;SDS011;1838;50.742;7.158;2022-11-18T05:58:48;9.20;;;4.80;;
3643;SDS011;1838;50.742;7.158;2022-11-18T06:01:15;9.53;;;4.67;;
3643;SDS011;1838;50.742;7.158;2022-11-18T06:03:44;13.10;;;5.20;;
3643;SDS011;1838;50.742;7.158;2022-11-18T06:06:10;9.00;;;4.57;;
3643;SDS011;1838;50.742;7.158;2022-11-18T06:08:40;8.90;;;4.17;;
3643;SDS011;1838;50.742;7.158;2022-11-18T06:11:13;11.60;;;5.00;;
3643;SDS011;1838;50.742;7.158;2022-11-18T06:13:43;9.90;;;4.30;;
3643;SDS011;1838;50.742;7.158;2022-11-18T06:16:15;9.50;;;4.90;;
3643;SDS011;1838;50.742;7.158;2022-11-18T06:18:46;10.30;;;5.10;;
3643;SDS011;1838;50.742;7.158;2022-11-18T06:21:12;9.43;;;5.10;;
3643;SDS011;1838;50.742;7.158;2022-11-18T06:23:38;13.80;;;7.00;;
3643;SDS011;1838;50.742;7.158;2022-11-18T06:26:05;28.63;;;8.23;;
3643;SDS011;1838;50.742;7.158;2022-11-18T06:28:31;31.43;;;13.00;;
3643;SDS011;1838;50.742;7.158;2022-11-18T06:30:58;11.77;;;6.27;;
3643;SDS011;1838;50.742;7.158;2022-11-18T06:33:23;7.17;;;4.73;;
3643;SDS011;1838;50.742;7.158;2022-11-18T06:35:49;17.27;;;4.43;;
3643;SDS011;1838;50.742;7.158;2022-11-18T06:38:14;5.90;;;4.70;;
3643;SDS011;1838;50.742;7.158;2022-11-18T06:40:40;11.00;;;5.43;;
3643;SDS011;1838;50.742;7.158;2022-11-18T06:43:08;12.13;;;5.97;;
3643;SDS011;1838;50.742;7.158;2022-11-18T06:46:00;11.17;;;5.83;;
3643;SDS011;1838;50.742;7.158;2022-11-18T06:48:45;16.33;;;6.07;;
3643;SDS011;1838;50.742;7.158;2022-11-18T06:51:11;11.07;;;6.10;;
3643;SDS011;1838;50.742;7.158;2022-11-18T06:53:36;12.87;;;6.00;;
3643;SDS011;1838;50.742;7.158;2022-11-18T06:56:03;14.17;;;5.87;;
3643;SDS011;1838;50.742;7.158;2022-11-18T06:58:29;9.23;;;5.20;;
3643;SDS011;1838;50.742;7.158;2022-11-18T07:00:55;11.80;;;5.13;;
3643;SDS011;1838;50.742;7.158;2022-11-18T07:03:20;15.40;;;6.97;;
3643;SDS011;1838;50.742;7.158;2022-11-18T07:05:46;10.03;;;5.00;;
3643;SDS011;1838;50.742;7.158;2022-11-18T07:08:11;12.67;;;6.10;;
3643;SDS011;1838;50.742;7.158;2022-11-18T07:10:37;12.63;;;5.50;;
3643;SDS011;1838;50.742;7.158;2022-11-18T07:13:02;11.03;;;5.47;;
3643;SDS011;1838;50.742;7.158;2022-11-18T07:15:28;18.50;;;6.33;;
3643;SDS011;1838;50.742;7.158;2022-11-18T07:17:53;10.83;;;5.43;;
3643;SDS011;1838;50.742;7.158;2022-11-18T07:20:19;7.57;;;4.50;;
3643;SDS011;1838;50.742;7.158;2022-11-18T07:22:44;6.60;;;4.77;;
3643;SDS011;1838;50.742;7.158;2022-11-18T07:25:10;5.40;;;4.50;;
3643;SDS011;1838;50.742;7.158;2022-11-18T07:27:35;10.37;;;4.10;;
3643;SDS011;1838;50.742;7.158;2022-11-18T07:30:01;22.03;;;4.60;;
3643;SDS011;1838;50.742;7.158;2022-11-18T07:32:27;5.83;;;3.50;;
3643;SDS011;1838;50.742;7.158;2022-11-18T07:34:52;5.93;;;3.90;;
3643;SDS011;1838;50.742;7.158;2022-11-18T07:37:18;10.60;;;3.80;;
3643;SDS011;1838;50.742;7.158;2022-11-18T07:39:43;7.43;;;3.50;;
3643;SDS011;1838;50.742;7.158;2022-11-18T07:42:09;7.60;;;4.10;;
3643;SDS011;1838;50.742;7.158;2022-11-18T07:44:34;6.67;;;3.77;;
3643;SDS011;1838;50.742;7.158;2022-11-18T07:47:00;6.20;;;3.50;;
3643;SDS011;1838;50.742;7.158;2022-11-18T07:49:25;7.90;;;3.73;;
3643;SDS011;1838;50.742;7.158;2022-11-18T07:51:51;6.87;;;3.40;;
3643;SDS011;1838;50.742;7.158;2022-11-18T07:54:16;6.67;;;3.80;;
3643;SDS011;1838;50.742;7.158;2022-11-18T07:56:42;9.50;;;3.60;;
3643;SDS011;1838;50.742;7.158;2022-11-18T07:59:08;10.90;;;3.77;;
3643;SDS011;1838;50.742;7.158;2022-11-18T08:01:33;10.47;;;3.60;;
3643;SDS011;1838;50.742;7.158;2022-11-18T08:04:06;9.07;;;4.00;;
3643;SDS011;1838;50.742;7.158;2022-11-18T08:06:33;6.83;;;3.93;;
3643;SDS011;1838;50.742;7.158;2022-11-18T08:08:59;5.40;;;3.23;;
3643;SDS011;1838;50.742;7.158;2022-11-18T08:11:25;7.57;;;3.97;;
3643;SDS011;1838;50.742;7.158;2022-11-18T08:13:50;10.10;;;3.70;;
3643;SDS011;1838;50.742;7.158;2022-11-18T08:16:17;8.23;;;4.43;;
3643;SDS011;1838;50.742;7.158;2022-11-18T08:18:44;6.07;;;3.93;;
3643;SDS011;1838;50.742;7.158;2022-11-18T08:21:11;11.60;;;4.00;;
3643;SDS011;1838;50.742;7.158;2022-11-18T08:23:37;25.53;;;4.23;;
3643;SDS011;1838;50.742;7.158;2022-11-18T08:26:05;11.23;;;3.60;;
3643;SDS011;1838;50.742;7.158;2022-11-18T08:28:31;11.00;;;3.73;;
3643;SDS011;1838;50.742;7.158;2022-11-18T08:30:57;10.83;;;3.73;;
3643;SDS011;1838;50.742;7.158;2022-11-18T08:33:22;8.00;;;3.87;;
3643;SDS011;1838;50.742;7.158;2022-11-18T08:35:48;10.23;;;3.20;;
3643;SDS011;1838;50.742;7.158;2022-11-18T08:38:13;6.03;;;3.57;;
3643;SDS011;1838;50.742;7.158;2022-11-18T08:40:40;8.30;;;4.43;;
3643;SDS011;1838;50.742;7.158;2022-11-18T08:43:07;7.73;;;4.33;;
3643;SDS011;1838;50.742;7.158;2022-11-18T08:45:35;5.27;;;3.80;;
3643;SDS011;1838;50.742;7.158;2022-11-18T08:48:07;11.00;;;4.20;;
3643;SDS011;1838;50.742;7.158;2022-11-18T08:50:32;19.93;;;4.73;;
3643;SDS011;1838;50.742;7.158;2022-11-18T08:52:58;8.50;;;4.20;;
3643;SDS011;1838;50.742;7.158;2022-11-18T08:55:24;11.43;;;5.00;;
3643;SDS011;1838;50.742;7.158;2022-11-18T08:57:49;14.43;;;5.63;;
3643;SDS011;1838;50.742;7.158;2022-11-18T09:00:15;10.33;;;5.70;;
3643;SDS011;1838;50.742;7.158;2022-11-18T09:02:41;9.43;;;5.67;;
3643;SDS011;1838;50.742;7.158;2022-11-18T09:05:07;10.73;;;5.60;;
3643;SDS011;1838;50.742;7.158;2022-11-18T09:07:32;21.60;;;5.70;;
3643;SDS011;1838;50.742;7.158;2022-11-18T09:09:58;10.10;;;4.20;;
3643;SDS011;1838;50.742;7.158;2022-11-18T09:12:23;11.27;;;6.00;;
3643;SDS011;1838;50.742;7.158;2022-11-18T09:14:49;8.83;;;4.60;;
3643;SDS011;1838;50.742;7.158;2022-11-18T09:17:14;7.03;;;4.93;;
3643;SDS011;1838;50.742;7.158;2022-11-18T09:19:40;6.23;;;3.37;;
3643;SDS011;1838;50.742;7.158;2022-11-18T09:22:06;5.70;;;4.17;;
3643;SDS011;1838;50.742;7.158;2022-11-18T09:24:32;11.10;;;4.63;;
3643;SDS011;1838;50.742;7.158;2022-11-18T09:26:58;11.20;;;4.53;;
3643;SDS011;1838;50.742;7.158;2022-11-18T09:29:26;8.07;;;3.93;;
3643;SDS011;1838;50.742;7.158;2022-11-18T09:31:51;5.90;;;4.13;;
3643;SDS011;1838;50.742;7.158;2022-11-18T09:34:17;5.00;;;3.50;;
3643;SDS011;1838;50.742;7.158;2022-11-18T09:36:43;7.20;;;3.10;;
3643;SDS011;1838;50.742;7.158;2022-11-18T09:39:09;3.43;;;2.97;;
3643;SDS011;1838;50.742;7.158;2022-11-18T09:41:43;6.17;;;3.00;;
3643;SDS011;1838;50.742;7.158;2022-11-18T09:49:55;6.33;;;3.57;;
3643;SDS011;1838;50.742;7.158;2022-11-18T09:54:57;9.83;;;3.70;;
3643;SDS011;1838;50.742;7.158;2022-11-18T09:57:27;4.80;;;3.00;;
3643;SDS011;1838;50.742;7.158;2022-11-18T10:00:01;4.77;;;2.57;;
3643;SDS011;1838;50.742;7.158;2022-11-18T10:02:57;10.17;;;3.17;;
3643;SDS011;1838;50.742;7.158;2022-11-18T10:10:55;3.53;;;3.23;;
3643;SDS011;1838;50.742;7.158;2022-11-18T10:13:49;8.13;;;3.03;;
3643;SDS011;1838;50.742;7.158;2022-11-18T10:16:53;5.00;;;3.00;;
3643;SDS011;1838;50.742;7.158;2022-11-18T10:19:32;9.00;;;3.10;;
3643;SDS011;1838;50.742;7.158;2022-11-18T10:24:36;6.10;;;3.47;;
3643;SDS011;1838;50.742;7.158;2022-11-18T10:27:11;6.27;;;3.23;;
3643;SDS011;1838;50.742;7.158;2022-11-18T10:29:38;6.90;;;2.90;;
3643;SDS011;1838;50.742;7.158;2022-11-18T10:34:43;7.07;;;2.93;;
3643;SDS011;1838;50.742;7.158;2022-11-18T10:37:32;4.50;;;2.60;;
3643;SDS011;1838;50.742;7.158;2022-11-18T10:40:02;9.00;;;2.77;;
3643;SDS011;1838;50.742;7.158;2022-11-18T10:45:21;15.33;;;3.30;;
3643;SDS011;1838;50.742;7.158;2022-11-18T10:50:37;6.20;;;3.20;;
3643;SDS011;1838;50.742;7.158;2022-11-18T10:53:05;4.27;;;2.57;;
3643;SDS011;1838;50.742;7.158;2022-11-18T10:56:00;3.27;;;2.70;;
3643;SDS011;1838;50.742;7.158;2022-11-18T10:58:29;5.23;;;2.87;;
3643;SDS011;1838;50.742;7.158;2022-11-18T11:01:06;5.30;;;3.20;;
3643;SDS011;1838;50.742;7.158;2022-11-18T11:06:30;4.77;;;2.13;;
3643;SDS011;1838;50.742;7.158;2022-11-18T11:11:28;2.27;;;1.90;;
3643;SDS011;1838;50.742;7.158;2022-11-18T11:14:00;4.80;;;1.87;;
3643;SDS011;1838;50.742;7.158;2022-11-18T11:16:29;3.73;;;1.90;;
3643;SDS011;1838;50.742;7.158;2022-11-18T11:18:58;4.60;;;2.00;;
3643;SDS011;1838;50.742;7.158;2022-11-18T11:21:26;6.00;;;1.80;;
3643;SDS011;1838;50.742;7.158;2022-11-18T11:23:52;10.00;;;2.80;;
3643;SDS011;1838;50.742;7.158;2022-11-18T11:28:56;4.83;;;1.50;;
3643;SDS011;1838;50.742;7.158;2022-11-18T11:39:51;4.80;;;1.33;;
3643;SDS011;1838;50.742;7.158;2022-11-18T11:45:26;4.03;;;1.60;;
3643;SDS011;1838;50.742;7.158;2022-11-18T11:49:06;4.40;;;1.27;;
3643;SDS011;1838;50.742;7.158;2022-11-18T11:51:35;5.50;;;1.77;;
3643;SDS011;1838;50.742;7.158;2022-11-18T11:57:54;10.00;;;2.00;;
3643;SDS011;1838;50.742;7.158;2022-11-18T12:00:45;7.63;;;1.33;;
3643;SDS011;1838;50.742;7.158;2022-11-18T12:03:33;3.30;;;1.60;;
3643;SDS011;1838;50.742;7.158;2022-11-18T12:06:11;4.27;;;1.40;;
3643;SDS011;1838;50.742;7.158;2022-11-18T12:08:38;4.70;;;1.53;;
3643;SDS011;1838;50.742;7.158;2022-11-18T12:11:19;3.00;;;1.37;;
3643;SDS011;1838;50.742;7.158;2022-11-18T12:17:05;4.10;;;1.07;;
3643;SDS011;1838;50.742;7.158;2022-11-18T12:19:38;7.50;;;1.50;;
3643;SDS011;1838;50.742;7.158;2022-11-18T12:22:04;4.10;;;1.60;;
3643;SDS011;1838;50.742;7.158;2022-11-18T12:24:40;7.00;;;2.23;;
3643;SDS011;1838;50.742;7.158;2022-11-18T12:27:11;11.03;;;1.23;;
3643;SDS011;1838;50.742;7.158;2022-11-18T12:29:58;6.50;;;1.53;;
3643;SDS011;1838;50.742;7.158;2022-11-18T12:35:01;7.10;;;1.97;;
3643;SDS011;1838;50.742;7.158;2022-11-18T12:39:56;6.40;;;1.60;;
3643;SDS011;1838;50.742;7.158;2022-11-18T12:42:34;9.50;;;1.90;;
3643;SDS011;1838;50.742;7.158;2022-11-18T12:45:43;5.17;;;1.80;;
3643;SDS011;1838;50.742;7.158;2022-11-18T12:50:58;6.43;;;1.30;;
3643;SDS011;1838;50.742;7.158;2022-11-18T12:53:53;7.00;;;2.47;;
3643;SDS011;1838;50.742;7.158;2022-11-18T12:58:57;5.47;;;2.03;;
3643;SDS011;1838;50.742;7.158;2022-11-18T13:01:31;6.07;;;1.63;;
3643;SDS011;1838;50.742;7.158;2022-11-18T13:06:40;6.03;;;1.30;;
3643;SDS011;1838;50.742;7.158;2022-11-18T13:09:19;4.37;;;2.07;;
3643;SDS011;1838;50.742;7.158;2022-11-18T13:11:52;4.33;;;1.40;;
3643;SDS011;1838;50.742;7.158;2022-11-18T13:14:23;5.13;;;1.60;;
3643;SDS011;1838;50.742;7.158;2022-11-18T13:17:30;10.00;;;2.07;;
3643;SDS011;1838;50.742;7.158;2022-11-18T13:20:23;9.60;;;1.33;;
3643;SDS011;1838;50.742;7.158;2022-11-18T13:22:56;3.80;;;2.40;;
3643;SDS011;1838;50.742;7.158;2022-11-18T13:25:43;6.07;;;1.87;;
3643;SDS011;1838;50.742;7.158;2022-11-18T13:33:37;8.13;;;2.27;;
3643;SDS011;1838;50.742;7.158;2022-11-18T13:36:13;7.37;;;1.50;;
3643;SDS011;1838;50.742;7.158;2022-11-18T13:39:00;2.77;;;1.63;;
3643;SDS011;1838;50.742;7.158;2022-11-18T13:41:29;5.10;;;1.93;;
3643;SDS011;1838;50.742;7.158;2022-11-18T13:46:49;8.77;;;2.50;;
3643;SDS011;1838;50.742;7.158;2022-11-18T13:49:19;13.27;;;2.03;;
3643;SDS011;1838;50.742;7.158;2022-11-18T13:51:51;4.03;;;1.90;;
3643;SDS011;1838;50.742;7.158;2022-11-18T13:54:21;8.90;;;1.80;;
3643;SDS011;1838;50.742;7.158;2022-11-18T13:56:51;17.57;;;2.20;;
3643;SDS011;1838;50.742;7.158;2022-11-18T13:59:18;4.93;;;2.00;;
3643;SDS011;1838;50.742;7.158;2022-11-18T14:01:46;7.80;;;1.47;;
3643;SDS011;1838;50.742;7.158;2022-11-18T14:04:19;6.97;;;1.30;;
3643;SDS011;1838;50.742;7.158;2022-11-18T14:06:53;3.60;;;1.47;;
3643;SDS011;1838;50.742;7.158;2022-11-18T14:09:51;3.67;;;1.33;;
3643;SDS011;1838;50.742;7.158;2022-11-18T14:14:42;3.03;;;1.57;;
3643;SDS011;1838;50.742;7.158;2022-11-18T14:17:16;7.53;;;2.37;;
3643;SDS011;1838;50.742;7.158;2022-11-18T14:19:50;4.40;;;1.83;;
3643;SDS011;1838;50.742;7.158;2022-11-18T14:22:24;5.03;;;1.73;;
3643;SDS011;1838;50.742;7.158;2022-11-18T14:27:39;4.43;;;1.70;;
3643;SDS011;1838;50.742;7.158;2022-11-18T14:35:35;10.37;;;1.80;;
3643;SDS011;1838;50.742;7.158;2022-11-18T14:38:08;5.53;;;1.70;;
3643;SDS011;1838;50.742;7.158;2022-11-18T14:40:40;16.93;;;4.23;;
3643;SDS011;1838;50.742;7.158;2022-11-18T14:43:05;5.10;;;1.80;;
3643;SDS011;1838;50.742;7.158;2022-11-18T14:45:31;7.43;;;1.63;;
3643;SDS011;1838;50.742;7.158;2022-11-18T14:47:57;5.73;;;1.83;;
3643;SDS011;1838;50.742;7.158;2022-11-18T14:50:22;7.40;;;2.13;;
3643;SDS011;1838;50.742;7.158;2022-11-18T14:52:48;10.60;;;2.80;;
3643;SDS011;1838;50.742;7.158;2022-11-18T14:55:13;5.40;;;2.07;;
3643;SDS011;1838;50.742;7.158;2022-11-18T14:57:39;5.50;;;1.87;;
3643;SDS011;1838;50.742;7.158;2022-11-18T15:00:05;11.10;;;3.20;;
3643;SDS011;1838;50.742;7.158;2022-11-18T15:02:31;3.10;;;1.93;;
3643;SDS011;1838;50.742;7.158;2022-11-18T15:04:56;7.07;;;1.90;;
3643;SDS011;1838;50.742;7.158;2022-11-18T15:07:22;5.83;;;2.00;;
3643;SDS011;1838;50.742;7.158;2022-11-18T15:09:47;5.27;;;1.83;;
3643;SDS011;1838;50.742;7.158;2022-11-18T15:12:13;6.20;;;1.60;;
3643;SDS011;1838;50.742;7.158;2022-11-18T15:14:38;3.30;;;1.40;;
3643;SDS011;1838;50.742;7.158;2022-11-18T15:17:04;10.03;;;2.40;;
3643;SDS011;1838;50.742;7.158;2022-11-18T15:19:30;12.57;;;2.83;;
3643;SDS011;1838;50.742;7.158;2022-11-18T15:21:55;4.80;;;1.73;;
3643;SDS011;1838;50.742;7.158;2022-11-18T15:24:21;10.93;;;2.90;;
3643;SDS011;1838;50.742;7.158;2022-11-18T15:26:47;5.03;;;2.37;;
3643;SDS011;1838;50.742;7.158;2022-11-18T15:29:17;4.57;;;1.67;;
3643;SDS011;1838;50.742;7.158;2022-11-18T15:31:47;5.13;;;2.40;;
3643;SDS011;1838;50.742;7.158;2022-11-18T15:34:13;5.50;;;1.97;;
3643;SDS011;1838;50.742;7.158;2022-11-18T15:36:39;5.20;;;1.70;;
3643;SDS011;1838;50.742;7.158;2022-11-18T15:39:05;7.27;;;2.30;;
3643;SDS011;1838;50.742;7.158;2022-11-18T15:41:31;8.33;;;2.97;;
3643;SDS011;1838;50.742;7.158;2022-11-18T15:43:57;4.70;;;2.50;;
3643;SDS011;1838;50.742;7.158;2022-11-18T15:46:24;9.90;;;3.23;;
3643;SDS011;1838;50.742;7.158;2022-11-18T15:48:52;4.07;;;2.20;;
3643;SDS011;1838;50.742;7.158;2022-11-18T15:51:18;5.87;;;2.60;;
3643;SDS011;1838;50.742;7.158;2022-11-18T15:53:44;11.20;;;2.60;;
3643;SDS011;1838;50.742;7.158;2022-11-18T15:58:44;3.10;;;2.10;;
3643;SDS011;1838;50.742;7.158;2022-11-18T16:01:31;7.27;;;3.30;;
3643;SDS011;1838;50.742;7.158;2022-11-18T16:03:58;10.03;;;3.20;;
3643;SDS011;1838;50.742;7.158;2022-11-18T16:06:24;8.00;;;2.30;;
3643;SDS011;1838;50.742;7.158;2022-11-18T16:08:50;7.73;;;3.03;;
3643;SDS011;1838;50.742;7.158;2022-11-18T16:11:16;6.37;;;2.67;;
3643;SDS011;1838;50.742;7.158;2022-11-18T16:14:05;6.53;;;2.33;;
3643;SDS011;1838;50.742;7.158;2022-11-18T16:16:32;4.00;;;2.03;;
3643;SDS011;1838;50.742;7.158;2022-11-18T16:19:00;6.07;;;1.40;;
3643;SDS011;1838;50.742;7.158;2022-11-18T16:21:28;5.77;;;2.40;;
3643;SDS011;1838;50.742;7.158;2022-11-18T16:23:56;7.77;;;2.13;;
3643;SDS011;1838;50.742;7.158;2022-11-18T16:26:24;6.40;;;2.40;;
3643;SDS011;1838;50.742;7.158;2022-11-18T16:28:50;4.57;;;1.90;;
3643;SDS011;1838;50.742;7.158;2022-11-18T16:31:16;6.00;;;2.30;;
3643;SDS011;1838;50.742;7.158;2022-11-18T16:34:07;3.73;;;1.67;;
3643;SDS011;1838;50.742;7.158;2022-11-18T16:36:38;4.57;;;2.27;;
3643;SDS011;1838;50.742;7.158;2022-11-18T16:39:05;6.73;;;2.20;;
3643;SDS011;1838;50.742;7.158;2022-11-18T16:41:33;7.63;;;2.00;;
3643;SDS011;1838;50.742;7.158;2022-11-18T16:43:59;4.30;;;1.97;;
3643;SDS011;1838;50.742;7.158;2022-11-18T16:46:30;3.93;;;1.90;;
3643;SDS011;1838;50.742;7.158;2022-11-18T16:48:57;4.57;;;1.67;;
3643;SDS011;1838;50.742;7.158;2022-11-18T16:51:24;3.30;;;1.40;;
3643;SDS011;1838;50.742;7.158;2022-11-18T16:53:51;4.17;;;1.73;;
3643;SDS011;1838;50.742;7.158;2022-11-18T16:56:19;4.20;;;1.80;;
3643;SDS011;1838;50.742;7.158;2022-11-18T16:58:46;4.80;;;2.07;;
3643;SDS011;1838;50.742;7.158;2022-11-18T17:01:12;6.53;;;2.03;;
3643;SDS011;1838;50.742;7.158;2022-11-18T17:03:39;4.10;;;2.40;;
3643;SDS011;1838;50.742;7.158;2022-11-18T17:06:04;5.40;;;1.97;;
3643;SDS011;1838;50.742;7.158;2022-11-18T17:08:34;5.43;;;1.83;;
3643;SDS011;1838;50.742;7.158;2022-11-18T17:11:07;10.07;;;3.00;;
3643;SDS011;1838;50.742;7.158;2022-11-18T17:13:33;6.23;;;2.30;;
3643;SDS011;1838;50.742;7.158;2022-11-18T17:16:06;11.13;;;2.50;;
3643;SDS011;1838;50.742;7.158;2022-11-18T17:18:33;9.60;;;2.00;;